Time;durP1;ratioP1;P1;durP2;ratioP2;P2;SDS_P1;SDS_P2;PMS_P1;PMS_P2;Temp;Humidity;BMP_temperature;BMP_pressure;BME280_temperature;BME280_humidity;BME280_pressure;Samples;Min_cycle;Max_cycle;Signal;HPM_P1;HPM_P2
2023/08/24 00:00:43;;;;;;;;;;;;;;;18.81;70.36;101411.30;108615;1262;125372;-82
2023/08/24 00:03:30;;;;;;;;;;;;;;;18.77;70.40;101416.60;108719;1264;60975;-82
2023/08/24 00:05:56;;;;;;;;;;;;;;;18.73;70.48;101420.34;108671;1261;125276;-82
2023/08/24 00:08:23;;;;;;;;;;;;;;;18.68;70.50;101420.86;108651;1264;59275;-82
2023/08/24 00:10:49;;;;;;;;;;;;;;;18.64;70.61;101423.15;108643;1264;125020;-80
2023/08/24 00:13:16;;;;;;;;;;;;;;;18.60;70.70;101418.70;108644;1260;59091;-82
2023/08/24 00:15:42;;;;;;;;;;;;;;;18.57;70.72;101416.73;108769;1263;59064;-82
2023/08/24 00:18:09;;;;;;;;;;;;;;;18.54;70.86;101415.66;108668;1262;124880;-82
2023/08/24 00:20:37;;;;;;;;;;;;;;;18.51;70.94;101415.83;108691;1260;59680;-82
2023/08/24 00:23:03;;;;;;;;;;;;;;;18.45;70.92;101412.09;108666;1264;124876;-82
2023/08/24 00:25:30;;;;;;;;;;;;;;;18.40;70.88;101408.52;108728;1266;71466;-79
2023/08/24 00:27:56;;;;;;;;;;;;;;;18.36;71.03;101409.56;108755;1266;59029;-79
2023/08/24 00:30:23;;;;;;;;;;;;;;;18.33;71.03;101413.45;108682;1263;124302;-82
2023/08/24 00:32:50;;;;;;;;;;;;;;;18.31;71.06;101410.98;108771;1262;59308;-82
2023/08/24 00:35:19;;;;;;;;;;;;;;;18.27;71.15;101413.63;108656;1263;127466;-82
2023/08/24 00:37:46;;;;;;;;;;;;;;;18.23;71.20;101410.41;108775;1265;72492;-79
2023/08/24 00:40:12;;;;;;;;;;;;;;;18.21;71.26;101408.45;108759;1264;59245;-79
2023/08/24 00:42:43;;;;;;;;;;;;;;;18.18;71.35;101405.23;108652;1260;125199;-80
2023/08/24 00:45:10;;;;;;;;;;;;;;;18.15;71.29;101401.14;108632;1260;73980;-79
2023/08/24 00:47:37;;;;;;;;;;;;;;;18.12;71.30;101399.17;108673;1261;126052;-80
2023/08/24 00:50:03;;;;;;;;;;;;;;;18.08;71.35;101398.61;108652;1261;72629;-78
2023/08/24 00:52:31;;;;;;;;;;;;;;;18.04;71.36;101402.16;108709;1262;59801;-80
2023/08/24 00:54:58;;;;;;;;;;;;;;;18.01;71.34;101401.26;108648;1261;124169;-80
2023/08/24 00:57:26;;;;;;;;;;;;;;;17.98;71.43;101395.38;108695;1260;74898;-81
2023/08/24 00:59:52;;;;;;;;;;;;;;;17.95;71.43;101392.88;108694;1261;124589;-81
2023/08/24 01:02:19;;;;;;;;;;;;;;;17.93;71.42;101392.69;108782;1263;72432;-81
2023/08/24 01:04:46;;;;;;;;;;;;;;;17.91;71.56;101388.42;108779;1260;59179;-82
2023/08/24 01:07:13;;;;;;;;;;;;;;;17.89;71.63;101389.12;108674;1260;124062;-81
2023/08/24 01:09:39;;;;;;;;;;;;;;;17.86;71.57;101383.60;108749;1260;75546;-81
2023/08/24 01:12:16;;;;;;;;;;;;;;;17.85;71.61;101385.19;108642;1261;125054;-81
2023/08/24 01:14:49;;;;;;;;;;;;;;;17.84;71.66;101385.70;108771;1260;71828;-81
2023/08/24 01:17:16;;;;;;;;;;;;;;;17.83;71.56;101380.70;108600;1263;125004;-81
2023/08/24 01:19:43;;;;;;;;;;;;;;;17.84;71.66;101379.48;108573;1262;59821;-81
2023/08/24 01:22:12;;;;;;;;;;;;;;;17.85;71.64;101373.83;108744;1260;73744;-81
2023/08/24 01:24:40;;;;;;;;;;;;;;;17.86;71.63;101374.02;108691;1262;124745;-81
2023/08/24 01:27:06;;;;;;;;;;;;;;;17.88;71.63;101369.77;108756;1261;71339;-81
2023/08/24 01:29:33;;;;;;;;;;;;;;;17.91;71.61;101368.89;108603;1260;125201;-78
2023/08/24 01:31:59;;;;;;;;;;;;;;;17.95;71.56;101372.45;108748;1262;58922;-78
2023/08/24 01:34:26;;;;;;;;;;;;;;;17.97;71.39;101373.73;108766;1260;59153;-79
2023/08/24 01:36:52;;;;;;;;;;;;;;;18.00;71.41;101372.11;108681;1260;125197;-79
2023/08/24 01:39:28;;;;;;;;;;;;;;;18.00;71.30;101376.03;108756;1261;58984;-79
2023/08/24 01:41:55;;;;;;;;;;;;;;;18.03;71.26;101372.31;108466;1260;125779;-78
2023/08/24 01:44:21;;;;;;;;;;;;;;;18.04;71.18;101370.72;108785;1261;58975;-81
2023/08/24 01:46:48;;;;;;;;;;;;;;;18.05;71.16;101375.88;108637;1264;124789;-80
2023/08/24 01:49:15;;;;;;;;;;;;;;;18.05;71.08;101373.38;108636;1260;59272;-81
2023/08/24 01:51:42;;;;;;;;;;;;;;;18.05;71.00;101371.60;108750;1260;72404;-81
2023/08/24 01:54:08;;;;;;;;;;;;;;;18.05;70.98;101371.95;108543;1260;125438;-81
2023/08/24 01:56:34;;;;;;;;;;;;;;;18.06;70.88;101377.30;108638;1261;59142;-81
2023/08/24 01:59:01;;;;;;;;;;;;;;;18.06;70.88;101375.70;108660;1260;124944;-81
2023/08/24 02:01:27;;;;;;;;;;;;;;;18.06;70.86;101378.73;108765;1260;59090;-81
2023/08/24 02:03:54;;;;;;;;;;;;;;;18.05;70.91;101376.41;108752;1260;59105;-81
2023/08/24 02:06:21;;;;;;;;;;;;;;;18.06;70.87;101383.16;108567;1261;126671;-82
2023/08/24 02:08:48;;;;;;;;;;;;;;;18.06;70.89;101383.52;108733;1260;59956;-81
2023/08/24 02:11:14;;;;;;;;;;;;;;;18.06;70.93;101382.63;108685;1260;125241;-81
2023/08/24 02:13:41;;;;;;;;;;;;;;;18.02;70.94;101381.01;108776;1260;59153;-82
2023/08/24 02:16:08;;;;;;;;;;;;;;;17.98;71.01;101382.77;108758;1260;72608;-82
2023/08/24 02:18:35;;;;;;;;;;;;;;;17.94;71.10;101388.79;108659;1261;124128;-82
2023/08/24 02:21:06;;;;;;;;;;;;;;;17.91;71.22;101387.17;108721;1261;59230;-81
2023/08/24 02:23:33;;;;;;;;;;;;;;;17.87;71.23;101387.15;108659;1261;124891;-82
2023/08/24 02:25:59;;;;;;;;;;;;;;;17.83;71.35;101389.23;108815;1260;59260;-81
2023/08/24 02:28:26;;;;;;;;;;;;;;;17.79;71.48;101389.04;108731;1261;59266;-81
2023/08/24 02:30:53;;;;;;;;;;;;;;;17.76;71.58;101386.18;108629;1260;124667;-82
2023/08/24 02:33:20;;;;;;;;;;;;;;;17.72;71.68;101390.41;108769;1260;59814;-82
2023/08/24 02:35:47;;;;;;;;;;;;;;;17.67;71.82;101390.20;108609;1264;124534;-82
2023/08/24 02:38:13;;;;;;;;;;;;;;;17.64;72.02;101391.80;108783;1261;66142;-82
2023/08/24 02:40:40;;;;;;;;;;;;;;;17.63;72.03;101391.95;108732;1261;59016;-82
2023/08/24 02:43:07;;;;;;;;;;;;;;;17.62;72.13;101394.43;108640;1260;125802;-81
2023/08/24 02:45:33;;;;;;;;;;;;;;;17.62;72.29;101393.18;108619;1260;60174;-81
2023/08/24 02:48:00;;;;;;;;;;;;;;;17.62;72.30;101394.08;108638;1260;125397;-81
2023/08/24 02:50:27;;;;;;;;;;;;;;;17.62;72.31;101390.52;108781;1261;64339;-82
2023/08/24 02:52:53;;;;;;;;;;;;;;;17.62;72.33;101388.75;108541;1260;125422;-81
2023/08/24 02:55:20;;;;;;;;;;;;;;;17.61;72.42;101386.61;108747;1261;59222;-82
2023/08/24 02:57:46;;;;;;;;;;;;;;;17.60;72.47;101384.84;108796;1261;59209;-78
2023/08/24 03:00:13;;;;;;;;;;;;;;;17.59;72.52;101390.35;108654;1261;125549;-77
2023/08/24 03:02:40;;;;;;;;;;;;;;;17.59;72.59;101393.54;108735;1261;65290;-79
2023/08/24 03:05:07;;;;;;;;;;;;;;;17.58;72.64;101395.12;108693;1260;125178;-79
2023/08/24 03:07:33;;;;;;;;;;;;;;;17.57;72.73;101394.76;108779;1260;58961;-78
2023/08/24 03:09:59;;;;;;;;;;;;;;;17.57;72.75;101395.30;108770;1260;59348;-79
2023/08/24 03:12:26;;;;;;;;;;;;;;;17.58;72.83;101390.15;108661;1261;124922;-84
2023/08/24 03:14:53;;;;;;;;;;;;;;;17.59;72.83;101391.40;108760;1261;59033;-84
2023/08/24 03:17:19;;;;;;;;;;;;;;;17.58;72.93;101390.86;108653;1261;124911;-84
2023/08/24 03:19:45;;;;;;;;;;;;;;;17.57;72.91;101393.69;108744;1261;59139;-84
2023/08/24 03:22:12;;;;;;;;;;;;;;;17.57;72.98;101394.93;108748;1260;59215;-78
2023/08/24 03:24:38;;;;;;;;;;;;;;;17.58;73.01;101392.98;108655;1260;124763;-78
2023/08/24 03:27:05;;;;;;;;;;;;;;;17.59;73.07;101398.51;108755;1260;59062;-79
2023/08/24 03:29:31;;;;;;;;;;;;;;;17.60;73.04;101396.38;108706;1260;125077;-78
2023/08/24 03:31:58;;;;;;;;;;;;;;;17.62;73.05;101397.45;108771;1260;59064;-78
2023/08/24 03:34:24;;;;;;;;;;;;;;;17.64;73.01;101398.89;108776;1260;59045;-78
2023/08/24 03:36:51;;;;;;;;;;;;;;;17.65;73.00;101395.52;108662;1260;125216;-78
2023/08/24 03:39:17;;;;;;;;;;;;;;;17.68;73.09;101392.52;108786;1260;59006;-78
2023/08/24 03:41:43;;;;;;;;;;;;;;;17.72;73.00;101390.77;108599;1262;125107;-78
2023/08/24 03:44:10;;;;;;;;;;;;;;;17.74;72.96;101387.77;108737;1261;58992;-78
2023/08/24 03:46:37;;;;;;;;;;;;;;;17.74;72.95;101389.02;108727;1261;59065;-79
2023/08/24 03:49:03;;;;;;;;;;;;;;;17.74;72.90;101387.59;108665;1261;125498;-79
2023/08/24 03:51:30;;;;;;;;;;;;;;;17.75;72.92;101397.00;108738;1260;58986;-79
2023/08/24 03:53:56;;;;;;;;;;;;;;;17.76;72.92;101399.13;108643;1260;124695;-79
2023/08/24 03:56:23;;;;;;;;;;;;;;;17.77;72.95;101399.14;108723;1260;58896;-79
2023/08/24 03:58:49;;;;;;;;;;;;;;;17.77;72.87;101394.17;108649;1261;125861;-78
2023/08/24 04:01:16;;;;;;;;;;;;;;;17.77;72.89;101393.64;108722;1261;74243;-78
2023/08/24 04:03:42;;;;;;;;;;;;;;;17.79;72.94;101393.64;108624;1261;59136;-79
2023/08/24 04:06:09;;;;;;;;;;;;;;;17.81;72.96;101396.32;108647;1261;126730;-78
2023/08/24 04:08:35;;;;;;;;;;;;;;;17.85;73.00;101400.28;108790;1260;58976;-78
2023/08/24 04:11:02;;;;;;;;;;;;;;;17.92;73.05;101402.99;108640;1262;125531;-82
2023/08/24 04:13:28;;;;;;;;;;;;;;;17.99;73.04;101400.17;108742;1260;59986;-82
2023/08/24 04:15:55;;;;;;;;;;;;;;;18.07;73.03;101398.63;108766;1260;58942;-83
2023/08/24 04:18:21;;;;;;;;;;;;;;;18.17;73.00;101396.89;108653;1260;124929;-81
2023/08/24 04:20:48;;;;;;;;;;;;;;;18.28;72.89;101401.37;108629;1264;59153;-79
2023/08/24 04:23:16;;;;;;;;;;;;;;;18.39;72.77;101405.33;108687;1260;124883;-82
2023/08/24 04:25:43;;;;;;;;;;;;;;;18.52;72.74;101403.04;108769;1260;74836;-82
2023/08/24 04:28:09;;;;;;;;;;;;;;;18.74;72.81;101401.14;108781;1260;65111;-82
2023/08/24 04:30:36;;;;;;;;;;;;;;;18.97;72.53;101400.31;108664;1261;125662;-82
2023/08/24 04:33:03;;;;;;;;;;;;;;;19.29;72.58;101400.13;108757;1260;59450;-82
2023/08/24 04:35:30;;;;;;;;;;;;;;;19.65;72.08;101395.80;108680;1261;124472;-82
2023/08/24 04:37:56;;;;;;;;;;;;;;;20.19;72.21;101400.29;108625;1262;74135;-80
2023/08/24 04:40:23;;;;;;;;;;;;;;;21.33;72.83;101401.32;108763;1261;59056;-80
2023/08/24 04:42:50;;;;;;;;;;;;;;;22.98;72.11;101397.16;108639;1260;124166;-82
2023/08/24 04:45:19;;;;;;;;;;;;;;;24.57;70.08;101395.05;108777;1261;59042;-80
2023/08/24 04:47:48;;;;;;;;;;;;;;;25.42;66.64;101394.09;108563;1263;124393;-82
2023/08/24 04:50:14;;;;;;;;;;;;;;;25.25;64.32;101401.36;108774;1260;59071;-80
2023/08/24 04:52:41;;;;;;;;;;;;;;;24.89;63.24;101402.21;108783;1260;64672;-83
2023/08/24 04:55:08;;;;;;;;;;;;;;;24.33;62.72;101399.70;108650;1260;123960;-79
2023/08/24 04:57:35;;;;;;;;;;;;;;;23.82;62.43;101400.22;108764;1260;59073;-79
2023/08/24 05:00:01;;;;;;;;;;;;;;;23.36;62.55;101399.63;108694;1260;124311;-80
2023/08/24 05:02:34;;;;;;;;;;;;;;;23.01;62.67;101406.29;108787;1262;73343;-80
2023/08/24 05:05:00;;;;;;;;;;;;;;;22.71;62.80;101404.57;108562;1262;125664;-79
2023/08/24 05:07:27;;;;;;;;;;;;;;;22.46;62.89;101405.12;108737;1261;73692;-81
2023/08/24 05:09:53;;;;;;;;;;;;;;;22.25;63.04;101407.17;108616;1260;59070;-82
2023/08/24 05:12:23;;;;;;;;;;;;;;;22.04;63.30;101402.77;108687;1260;124790;-82
2023/08/24 05:14:53;;;;;;;;;;;;;;;21.85;63.37;101405.48;108737;1261;74417;-81
2023/08/24 05:17:21;;;;;;;;;;;;;;;21.70;63.50;101405.30;108699;1261;124354;-81
2023/08/24 05:19:51;;;;;;;;;;;;;;;21.57;63.66;101406.33;108663;1261;71434;-81
2023/08/24 05:22:17;;;;;;;;;;;;;;;21.44;63.81;101411.95;108771;1261;59269;-81
2023/08/24 05:24:44;;;;;;;;;;;;;;;21.32;63.97;101416.34;108626;1260;124605;-80
2023/08/24 05:27:10;;;;;;;;;;;;;;;21.17;64.01;101420.76;108790;1260;59446;-81
2023/08/24 05:29:36;;;;;;;;;;;;;;;21.02;64.28;101418.20;108621;1261;124096;-80
2023/08/24 05:32:05;;;;;;;;;;;;;;;20.88;64.35;101422.40;108616;1264;59012;-80
2023/08/24 05:34:34;;;;;;;;;;;;;;;20.77;64.55;101424.44;108632;1262;59158;-80
2023/08/24 05:37:01;;;;;;;;;;;;;;;20.66;64.67;101426.65;108668;1261;124204;-79
2023/08/24 05:39:27;;;;;;;;;;;;;;;20.56;64.75;101426.33;108633;1260;59267;-79
2023/08/24 05:41:54;;;;;;;;;;;;;;;20.44;64.92;101424.59;108669;1261;124042;-79
2023/08/24 05:44:21;;;;;;;;;;;;;;;20.35;65.13;101425.00;108764;1261;59403;-85
2023/08/24 05:46:47;;;;;;;;;;;;;;;20.29;65.27;101423.78;108703;1262;59118;-85
2023/08/24 05:49:14;;;;;;;;;;;;;;;20.23;65.53;101426.83;108731;1261;123952;-86
2023/08/24 05:51:42;;;;;;;;;;;;;;;20.18;65.62;101425.42;108869;1261;73049;-85
2023/08/24 05:54:08;;;;;;;;;;;;;;;20.14;65.88;101428.48;108742;1261;124515;-85
2023/08/24 05:56:34;;;;;;;;;;;;;;;20.14;65.94;101427.23;108864;1261;58953;-85
2023/08/24 05:59:01;;;;;;;;;;;;;;;20.12;66.04;101424.03;108735;1261;124335;-85
2023/08/24 06:01:27;;;;;;;;;;;;;;;20.11;66.07;101423.67;108857;1260;59001;-85
2023/08/24 06:03:54;;;;;;;;;;;;;;;20.12;66.31;101422.77;108869;1260;73959;-85
2023/08/24 06:06:20;;;;;;;;;;;;;;;20.11;66.37;101416.36;108738;1260;124017;-85
2023/08/24 06:08:47;;;;;;;;;;;;;;;20.08;66.30;101419.05;108801;1262;72665;-85
2023/08/24 06:11:14;;;;;;;;;;;;;;;20.07;66.49;101429.92;108720;1261;124166;-84
2023/08/24 06:13:40;;;;;;;;;;;;;;;20.06;66.49;101428.33;108781;1261;60074;-85
2023/08/24 06:16:20;;;;;;;;;;;;;;;20.06;66.63;101421.91;108663;1262;73675;-85
2023/08/24 06:18:49;;;;;;;;;;;;;;;20.07;66.70;101417.27;108608;1262;124313;-85
2023/08/24 06:21:16;;;;;;;;;;;;;;;20.09;66.82;101418.51;108651;1261;72406;-85
2023/08/24 06:23:47;;;;;;;;;;;;;;;20.13;66.85;101410.84;108745;1260;124976;-85
2023/08/24 06:26:14;;;;;;;;;;;;;;;20.21;66.87;101410.80;108791;1260;59825;-85
2023/08/24 06:28:43;;;;;;;;;;;;;;;20.28;67.01;101408.45;108868;1260;74875;-85
2023/08/24 06:31:14;;;;;;;;;;;;;;;20.37;67.00;101415.89;108639;1264;124741;-85
2023/08/24 06:33:42;;;;;;;;;;;;;;;20.46;66.96;101415.85;108764;1261;72725;-77
2023/08/24 06:36:20;;;;;;;;;;;;;;;20.51;66.63;101414.04;108629;1260;125043;-85
2023/08/24 06:38:50;;;;;;;;;;;;;;;20.52;66.53;101416.00;108836;1261;59129;-85
2023/08/24 06:41:16;;;;;;;;;;;;;;;20.58;66.72;101418.64;108717;1260;125165;-84
2023/08/24 06:43:43;;;;;;;;;;;;;;;20.68;66.70;101415.22;108837;1260;64941;-85
2023/08/24 06:46:09;;;;;;;;;;;;;;;20.77;66.56;101412.65;108791;1260;71817;-77
2023/08/24 06:48:37;;;;;;;;;;;;;;;20.86;66.56;101416.70;108643;1260;125276;-77
2023/08/24 06:51:03;;;;;;;;;;;;;;;20.90;66.37;101424.36;108778;1260;59989;-77
2023/08/24 06:53:30;;;;;;;;;;;;;;;20.95;66.34;101425.56;108659;1262;125014;-77
2023/08/24 06:55:57;;;;;;;;;;;;;;;20.99;66.35;101425.89;108736;1261;66618;-76
2023/08/24 06:58:24;;;;;;;;;;;;;;;21.01;66.25;101424.63;108694;1260;72964;-77
2023/08/24 07:00:50;;;;;;;;;;;;;;;21.03;66.24;101421.77;108534;1260;125290;-79
2023/08/24 07:03:17;;;;;;;;;;;;;;;21.07;66.31;101426.02;108741;1261;59939;-78
2023/08/24 07:05:44;;;;;;;;;;;;;;;21.11;66.30;101429.56;108699;1260;124527;-87
2023/08/24 07:08:11;;;;;;;;;;;;;;;21.18;66.31;101426.11;108818;1260;66124;-82
2023/08/24 07:10:37;;;;;;;;;;;;;;;21.28;66.32;101423.16;108802;1262;72498;-82
2023/08/24 07:13:05;;;;;;;;;;;;;;;21.44;66.48;101421.97;108555;1261;124225;-82
2023/08/24 07:15:33;;;;;;;;;;;;;;;21.62;66.34;101418.77;108793;1260;59027;-82
2023/08/24 07:17:59;;;;;;;;;;;;;;;21.80;66.25;101418.05;108660;1260;124074;-82
2023/08/24 07:20:26;;;;;;;;;;;;;;;21.99;65.92;101418.02;108824;1260;58912;-82
2023/08/24 07:22:53;;;;;;;;;;;;;;;22.12;65.61;101417.50;108798;1260;73684;-82
2023/08/24 07:25:23;;;;;;;;;;;;;;;22.19;65.26;101418.67;108639;1260;123935;-82
2023/08/24 07:27:49;;;;;;;;;;;;;;;22.28;65.04;101418.94;108690;1261;59217;-83
2023/08/24 07:30:16;;;;;;;;;;;;;;;22.35;64.74;101420.30;108707;1260;123985;-85
2023/08/24 07:32:43;;;;;;;;;;;;;;;22.40;64.38;101420.41;108841;1261;65023;-86
2023/08/24 07:35:09;;;;;;;;;;;;;;;22.47;64.39;101424.25;108669;1261;124312;-85
2023/08/24 07:37:35;;;;;;;;;;;;;;;22.63;64.35;101423.30;108783;1261;60659;-84
2023/08/24 07:40:17;;;;;;;;;;;;;;;22.82;64.11;101419.98;108754;1261;59315;-86
2023/08/24 07:42:47;;;;;;;;;;;;;;;23.01;63.53;101420.24;108476;1261;125173;-85
2023/08/24 07:45:14;;;;;;;;;;;;;;;23.20;63.24;101424.27;108674;1262;65065;-85
2023/08/24 07:47:40;;;;;;;;;;;;;;;23.37;62.73;101428.44;108719;1260;124213;-85
2023/08/24 07:50:08;;;;;;;;;;;;;;;23.51;62.64;101436.79;108773;1261;59082;-85
2023/08/24 07:52:34;;;;;;;;;;;;;;;23.72;62.31;101437.67;108702;1261;60252;-85
2023/08/24 07:55:03;;;;;;;;;;;;;;;24.01;62.21;101438.92;108705;1261;124242;-84
2023/08/24 07:57:31;;;;;;;;;;;;;;;24.34;61.92;101436.63;108629;1261;65081;-85
2023/08/24 07:59:58;;;;;;;;;;;;;;;24.68;61.54;101439.52;108534;1261;124211;-86
2023/08/24 08:02:24;;;;;;;;;;;;;;;24.97;60.64;101435.78;108799;1260;59262;-85
2023/08/24 08:04:51;;;;;;;;;;;;;;;25.22;59.94;101440.59;108787;1261;58991;-86
2023/08/24 08:07:18;;;;;;;;;;;;;;;25.38;59.45;101440.20;108635;1261;124195;-86
2023/08/24 08:09:45;;;;;;;;;;;;;;;25.45;59.09;101440.39;108760;1260;66208;-86
2023/08/24 08:12:11;;;;;;;;;;;;;;;25.62;58.78;101437.23;108730;1260;124641;-85
2023/08/24 08:14:38;;;;;;;;;;;;;;;25.71;57.88;101440.76;108771;1261;58917;-87
2023/08/24 08:17:04;;;;;;;;;;;;;;;25.68;57.59;101441.41;108654;1260;124435;-88
2023/08/24 08:19:31;;;;;;;;;;;;;;;25.64;57.05;101442.77;108724;1261;59663;-86
2023/08/24 08:21:57;;;;;;;;;;;;;;;25.58;56.60;101443.09;108820;1261;65274;-86
2023/08/24 08:24:24;;;;;;;;;;;;;;;25.31;56.24;101445.06;108642;1262;124045;-86
2023/08/24 08:26:50;;;;;;;;;;;;;;;24.98;56.11;101443.66;108794;1260;59007;-89
2023/08/24 08:29:17;;;;;;;;;;;;;;;24.77;56.48;101444.33;108687;1261;124490;-86
2023/08/24 08:31:50;;;;;;;;;;;;;;;24.56;56.61;101446.77;108756;1262;75245;-89
2023/08/24 08:34:16;;;;;;;;;;;;;;;24.33;56.67;101446.52;108702;1260;59189;-81
2023/08/24 08:36:43;;;;;;;;;;;;;;;24.19;56.64;101445.55;108654;1261;125831;-86
2023/08/24 08:39:09;;;;;;;;;;;;;;;24.03;56.73;101442.66;108731;1261;59539;-86
2023/08/24 08:41:42;;;;;;;;;;;;;;;23.99;57.17;101440.77;108642;1260;124937;-84
2023/08/24 08:44:09;;;;;;;;;;;;;;;24.06;57.01;101441.53;108713;1262;74656;-79
2023/08/24 08:46:35;;;;;;;;;;;;;;;24.16;57.04;101441.85;108742;1261;66311;-84
2023/08/24 08:49:02;;;;;;;;;;;;;;;24.31;56.99;101441.90;108678;1261;124281;-85
2023/08/24 08:51:29;;;;;;;;;;;;;;;24.49;56.73;101444.77;108742;1261;58952;-79
2023/08/24 08:53:55;;;;;;;;;;;;;;;24.66;56.07;101453.20;108662;1262;124133;-79
2023/08/24 08:56:22;;;;;;;;;;;;;;;24.80;55.61;101446.95;108624;1261;59881;-79
2023/08/24 08:58:48;;;;;;;;;;;;;;;24.98;55.65;101449.06;108714;1261;59059;-79
2023/08/24 09:01:15;;;;;;;;;;;;;;;25.23;55.55;101449.52;108638;1261;124295;-81
2023/08/24 09:03:41;;;;;;;;;;;;;;;25.49;55.18;101442.61;108535;1260;59292;-80
2023/08/24 09:06:08;;;;;;;;;;;;;;;25.68;54.88;101445.16;108618;1262;124425;-80
2023/08/24 09:08:35;;;;;;;;;;;;;;;25.83;54.11;101444.95;108745;1264;74879;-80
2023/08/24 09:11:03;;;;;;;;;;;;;;;25.90;53.99;101445.30;108559;1262;124260;-80
2023/08/24 09:13:29;;;;;;;;;;;;;;;25.87;53.17;101447.71;108596;1261;72399;-80
2023/08/24 09:16:02;;;;;;;;;;;;;;;25.69;52.87;101447.66;108650;1260;59118;-79
2023/08/24 09:18:38;;;;;;;;;;;;;;;25.48;52.80;101440.28;108597;1261;124014;-80
2023/08/24 09:21:11;;;;;;;;;;;;;;;25.25;52.81;101444.48;108720;1262;72393;-80
2023/08/24 09:23:38;;;;;;;;;;;;;;;24.98;52.73;101443.85;108685;1261;124707;-80
2023/08/24 09:26:04;;;;;;;;;;;;;;;24.78;52.89;101435.35;108768;1261;71043;-80
2023/08/24 09:28:31;;;;;;;;;;;;;;;24.65;53.06;101436.52;108733;1261;59220;-81
2023/08/24 09:31:07;;;;;;;;;;;;;;;24.60;52.90;101435.73;108593;1262;124624;-80
2023/08/24 09:33:33;;;;;;;;;;;;;;;24.55;52.92;101434.95;108763;1260;74477;-81
2023/08/24 09:36:27;;;;;;;;;;;;;;;24.60;53.16;101432.34;108512;1262;125199;-82
2023/08/24 09:39:25;;;;;;;;;;;;;;;;;;;;;
2023/08/24 09:42:05;;;;;;;;;;;;;;;24.88;52.59;101425.61;108473;1263;124455;-82
2023/08/24 09:44:32;;;;;;;;;;;;;;;24.91;52.55;101421.04;108690;1260;58969;-82
2023/08/24 09:46:59;;;;;;;;;;;;;;;24.94;52.52;101420.42;108766;1261;75015;-82
2023/08/24 09:49:28;;;;;;;;;;;;;;;25.02;52.38;101418.95;108562;1261;124632;-82
2023/08/24 09:51:55;;;;;;;;;;;;;;;25.17;52.47;101420.59;108623;1261;72500;-82
2023/08/24 09:54:22;;;;;;;;;;;;;;;25.40;52.36;101412.64;108681;1260;124325;-82
2023/08/24 09:56:48;;;;;;;;;;;;;;;25.61;52.18;101405.98;108765;1261;58945;-81
2023/08/24 09:59:18;;;;;;;;;;;;;;;25.76;51.46;101416.55;108735;1262;59622;-82
2023/08/24 10:01:48;;;;;;;;;;;;;;;25.67;50.87;101414.64;108602;1262;65021;-83
2023/08/24 10:04:17;;;;;;;;;;;;;;;25.66;50.92;101412.16;108734;1262;73928;-83
2023/08/24 10:06:44;;;;;;;;;;;;;;;25.74;50.82;101411.91;108654;1261;124062;-83
2023/08/24 10:09:11;;;;;;;;;;;;;;;25.87;50.65;101407.80;108799;1261;59024;-82
2023/08/24 10:11:40;;;;;;;;;;;;;;;25.96;49.96;101408.08;108486;1262;124450;-82
2023/08/24 10:14:15;;;;;;;;;;;;;;;25.96;49.79;101399.30;108724;1261;65985;-83
2023/08/24 10:16:42;;;;;;;;;;;;;;;25.91;49.73;101402.65;108569;1262;71440;-83
2023/08/24 10:19:08;;;;;;;;;;;;;;;25.74;49.59;101396.46;108491;1262;124181;-83
2023/08/24 10:21:35;;;;;;;;;;;;;;;25.54;49.39;101401.69;108743;1262;58954;-83
2023/08/24 10:24:01;;;;;;;;;;;;;;;25.32;49.53;101399.22;108660;1260;124160;-83
2023/08/24 10:26:28;;;;;;;;;;;;;;;25.23;49.77;101392.45;108642;1264;65657;-82
2023/08/24 10:28:55;;;;;;;;;;;;;;;25.28;49.80;101382.60;108649;1260;73045;-83
2023/08/24 10:31:21;;;;;;;;;;;;;;;25.44;50.01;101382.00;108534;1262;124647;-83
2023/08/24 10:33:48;;;;;;;;;;;;;;;25.56;49.55;101380.79;108657;1260;60164;-83
2023/08/24 10:36:14;;;;;;;;;;;;;;;25.56;49.31;101382.95;108665;1261;124122;-83
2023/08/24 10:38:44;;;;;;;;;;;;;;;25.55;49.27;101381.73;108763;1261;66327;-82
2023/08/24 10:41:13;;;;;;;;;;;;;;;25.50;49.15;101375.72;108609;1262;72207;-83
2023/08/24 10:43:40;;;;;;;;;;;;;;;25.47;49.40;101379.23;108661;1262;124115;-83
2023/08/24 10:46:13;;;;;;;;;;;;;;;25.47;49.33;101375.12;108630;1261;59334;-83
2023/08/24 10:48:40;;;;;;;;;;;;;;;25.46;49.16;101373.52;108633;1261;124881;-83
2023/08/24 10:51:13;;;;;;;;;;;;;;;25.49;48.84;101368.41;108741;1262;65285;-83
2023/08/24 10:53:58;;;;;;;;;;;;;;;25.64;49.18;101366.02;108654;1260;125109;-83
2023/08/24 10:56:35;;;;;;;;;;;;;;;25.99;48.98;101361.06;108763;1262;59400;-83
2023/08/24 10:59:14;;;;;;;;;;;;;;;26.34;48.31;101355.00;108799;1262;59005;-83
2023/08/24 11:01:41;;;;;;;;;;;;;;;26.66;48.00;101357.95;108558;1262;125010;-82
2023/08/24 11:04:08;;;;;;;;;;;;;;;26.96;47.71;101351.92;108777;1261;66096;-83
2023/08/24 11:06:34;;;;;;;;;;;;;;;27.25;47.53;101349.34;108629;1262;124304;-83
2023/08/24 11:09:14;;;;;;;;;;;;;;;27.46;47.01;101356.92;108778;1261;58950;-83
2023/08/24 11:11:41;;;;;;;;;;;;;;;27.50;46.49;101359.98;108625;1261;124571;-84
2023/08/24 11:14:14;;;;;;;;;;;;;;;27.48;46.14;101356.45;108710;1262;64558;-83
2023/08/24 11:16:44;;;;;;;;;;;;;;;27.56;45.97;101351.32;108810;1260;58952;-82
2023/08/24 11:19:12;;;;;;;;;;;;;;;27.66;45.71;101349.66;108657;1261;124314;-82
2023/08/24 11:21:39;;;;;;;;;;;;;;;27.75;45.62;101345.39;108801;1260;59290;-82
2023/08/24 11:24:18;;;;;;;;;;;;;;;27.87;45.49;101345.85;108654;1260;124366;-81
2023/08/24 11:27:01;;;;;;;;;;;;;;;28.05;45.30;101345.70;108650;1261;73701;-81
2023/08/24 11:29:28;;;;;;;;;;;;;;;28.14;44.95;101339.95;108644;1262;124168;-80
2023/08/24 11:31:54;;;;;;;;;;;;;;;28.13;44.75;101334.77;108650;1261;63998;-79
2023/08/24 11:34:21;;;;;;;;;;;;;;;28.08;44.59;101336.40;108654;1261;59076;-79
2023/08/24 11:36:47;;;;;;;;;;;;;;;28.05;44.61;101331.28;108685;1261;124063;-79
2023/08/24 11:39:19;;;;;;;;;;;;;;;28.10;44.59;101324.08;108791;1261;73553;-80
2023/08/24 11:42:09;;;;;;;;;;;;;;;28.13;44.46;101324.30;108686;1261;124833;-80
2023/08/24 11:44:47;;;;;;;;;;;;;;;28.12;44.35;101313.88;108651;1260;200119;-80
2023/08/24 11:47:14;;;;;;;;;;;;;;;28.09;44.47;101317.95;108689;1261;59054;-79
2023/08/24 11:49:41;;;;;;;;;;;;;;;28.06;44.53;101313.93;108684;1261;123951;-79
2023/08/24 11:52:08;;;;;;;;;;;;;;;28.04;44.70;101299.75;108640;1261;72066;-80
2023/08/24 11:54:38;;;;;;;;;;;;;;;27.93;44.06;101311.71;108683;1261;124413;-80
2023/08/24 11:57:08;;;;;;;;;;;;;;;27.57;43.72;101315.23;108691;1262;72749;-80
2023/08/24 11:59:35;;;;;;;;;;;;;;;27.25;43.88;101314.73;108541;1261;125658;-79
2023/08/24 12:02:02;;;;;;;;;;;;;;;27.16;44.22;101313.05;108756;1261;59198;-79
2023/08/24 12:04:28;;;;;;;;;;;;;;;27.26;44.15;101314.52;108566;1268;73491;-79
2023/08/24 12:06:55;;;;;;;;;;;;;;;27.26;43.96;101315.43;108700;1261;123944;-79
2023/08/24 12:09:21;;;;;;;;;;;;;;;27.20;44.12;101312.91;108784;1261;71454;-80
2023/08/24 12:11:48;;;;;;;;;;;;;;;27.21;44.25;101314.32;108571;1261;124599;-80
2023/08/24 12:14:17;;;;;;;;;;;;;;;27.18;44.15;101310.84;108769;1262;59006;-79
2023/08/24 12:16:53;;;;;;;;;;;;;;;27.11;44.26;101312.86;108765;1260;73421;-79
2023/08/24 12:19:21;;;;;;;;;;;;;;;27.10;44.12;101308.40;108669;1261;124029;-80
2023/08/24 12:21:49;;;;;;;;;;;;;;;27.10;44.05;101314.52;108734;1262;72436;-80
2023/08/24 12:24:16;;;;;;;;;;;;;;;27.11;44.14;101308.92;108653;1262;124605;-80
2023/08/24 12:26:42;;;;;;;;;;;;;;;27.12;44.03;101311.58;108795;1261;59430;-82